Alkol, West Virginia
Current Conditions -  °F | °C
As of 9:54 PM on Tuesday 25 Nov 2014 (Local Time) from KCRW Reporting Station
Overcast Overcast  
Wind Chill:   Ceiling: 18000
Heat Index:   Visibility: 10mi
Dew Point: -3°   Wind: 3mph
Humidity: 53%   Direction: 10°N
Pressure: 30.14"   Gusts: NA
Location:  38.16°N, 81.92°W
Report Text: KCRW 260254Z 01003KT 10SM OVC180 06/M03 A3014 RMK AO2 SLP209 T00611028 53012
Loading
Personal Weather Stations






























Interactive Weather Map New forecast layout! Learn more

10-Day Weather Forecast

Advertisements
Track Severe Weather on mobile